createdAt,value
2018-12-26T00:01:36.871Z,5.50
2018-12-26T00:04:07.457Z,5.50
2018-12-26T00:06:37.256Z,5.50
2018-12-26T00:09:09.103Z,5.50
2018-12-26T00:11:39.592Z,5.60
2018-12-26T00:14:10.063Z,5.50
2018-12-26T00:16:40.666Z,5.50
2018-12-26T00:19:10.813Z,5.50
2018-12-26T00:21:40.797Z,5.50
2018-12-26T00:24:14.140Z,5.50
2018-12-26T00:26:44.206Z,5.50
2018-12-26T00:29:14.899Z,5.60
2018-12-26T00:31:45.472Z,5.50
2018-12-26T00:34:16.294Z,5.60
2018-12-26T00:36:46.475Z,5.50
2018-12-26T00:39:23.128Z,5.50
2018-12-26T00:41:53.292Z,5.60
2018-12-26T00:44:24.132Z,5.60
2018-12-26T00:46:54.099Z,5.50
2018-12-26T00:49:24.302Z,5.50
2018-12-26T00:51:55.113Z,5.50
2018-12-26T00:54:25.480Z,5.60
2018-12-26T00:56:55.535Z,5.50
2018-12-26T00:59:26.686Z,5.50
2018-12-26T01:01:57.230Z,5.50
2018-12-26T01:04:27.419Z,5.50
2018-12-26T01:06:57.997Z,5.50
2018-12-26T01:09:28.587Z,5.50
2018-12-26T01:11:58.740Z,5.50
2018-12-26T01:14:28.857Z,5.50
2018-12-26T01:16:59.294Z,5.50
2018-12-26T01:19:29.978Z,5.40
2018-12-26T01:22:00.147Z,5.50
2018-12-26T01:24:30.535Z,5.50
2018-12-26T01:27:00.311Z,5.50
2018-12-26T01:29:30.353Z,5.50
2018-12-26T01:32:00.511Z,5.50
2018-12-26T01:34:30.620Z,5.50
2018-12-26T01:37:00.419Z,5.50
2018-12-26T01:39:30.831Z,5.50
2018-12-26T01:42:00.835Z,5.50
2018-12-26T01:44:30.672Z,5.50
2018-12-26T01:47:00.656Z,5.50
2018-12-26T01:49:31.131Z,5.50
2018-12-26T01:52:01.155Z,5.50
2018-12-26T01:54:35.638Z,5.50
2018-12-26T01:57:05.973Z,5.50
2018-12-26T01:59:36.459Z,5.50
2018-12-26T02:02:06.765Z,5.50
2018-12-26T02:04:37.146Z,5.50
2018-12-26T02:07:06.876Z,5.50
2018-12-26T02:09:37.161Z,5.50
2018-12-26T02:12:07.246Z,5.50
2018-12-26T02:14:37.450Z,5.50
2018-12-26T02:17:07.415Z,5.50
2018-12-26T02:19:37.568Z,5.50
2018-12-26T02:22:07.623Z,5.50
2018-12-26T02:24:37.466Z,5.40
2018-12-26T02:27:07.239Z,5.40
2018-12-26T02:29:37.034Z,5.50
2018-12-26T02:32:07.870Z,5.40
2018-12-26T02:34:38.126Z,5.40
2018-12-26T02:37:08.076Z,5.40
2018-12-26T02:39:37.988Z,5.50
2018-12-26T02:42:07.835Z,5.30
2018-12-26T02:44:37.674Z,5.40
2018-12-26T02:47:07.579Z,5.40
2018-12-26T02:49:37.404Z,5.40
2018-12-26T02:52:07.622Z,5.40
2018-12-26T02:54:37.914Z,5.40
2018-12-26T02:57:08.930Z,5.30
2018-12-26T02:59:39.161Z,5.30
2018-12-26T03:02:09.051Z,5.40
2018-12-26T03:04:39.520Z,5.30
2018-12-26T03:07:09.339Z,5.20
2018-12-26T03:09:39.392Z,5.20
2018-12-26T03:12:09.463Z,5.30
2018-12-26T03:14:39.864Z,5.20
2018-12-26T03:17:10.079Z,5.30
2018-12-26T03:19:39.981Z,5.20
2018-12-26T03:22:09.969Z,5.30
2018-12-26T03:24:39.872Z,5.20
2018-12-26T03:27:10.079Z,5.30
2018-12-26T03:29:40.092Z,5.30
2018-12-26T03:32:10.481Z,5.30
2018-12-26T03:34:40.593Z,5.20
2018-12-26T03:37:10.344Z,5.20
2018-12-26T03:39:40.508Z,5.20
2018-12-26T03:42:10.460Z,5.20
2018-12-26T03:44:41.339Z,5.20
2018-12-26T03:47:11.139Z,5.10
2018-12-26T03:49:41.066Z,5.30
2018-12-26T03:52:11.278Z,5.30
2018-12-26T03:54:41.102Z,5.20
2018-12-26T03:57:11.263Z,5.20
2018-12-26T03:59:41.500Z,5.20
2018-12-26T04:02:11.486Z,5.20
2018-12-26T04:04:42.006Z,5.30
2018-12-26T04:07:12.515Z,5.20
2018-12-26T04:09:42.999Z,5.20
2018-12-26T04:12:13.311Z,5.30
2018-12-26T04:14:43.797Z,5.20
2018-12-26T04:17:14.029Z,5.20
2018-12-26T04:19:44.118Z,5.20
2018-12-26T04:22:15.162Z,5.20
2018-12-26T04:24:48.537Z,5.20
2018-12-26T04:27:18.903Z,5.20
2018-12-26T04:29:48.834Z,5.30
2018-12-26T04:32:18.629Z,5.30
2018-12-26T04:34:50.011Z,5.30
2018-12-26T04:37:20.075Z,5.30
2018-12-26T04:39:49.988Z,5.20
2018-12-26T04:42:20.285Z,5.30
2018-12-26T04:44:52.751Z,5.30
2018-12-26T04:47:23.153Z,5.30
2018-12-26T04:49:53.758Z,5.30
2018-12-26T04:52:23.928Z,5.30
2018-12-26T04:54:56.344Z,5.20
2018-12-26T04:57:25.970Z,5.30
2018-12-26T04:59:55.839Z,5.30
2018-12-26T05:02:26.285Z,5.30
2018-12-26T05:04:56.564Z,5.40
2018-12-26T05:07:26.506Z,5.40
2018-12-26T05:09:56.269Z,5.40
2018-12-26T05:12:26.677Z,5.30
2018-12-26T05:14:56.469Z,5.30
2018-12-26T05:17:26.515Z,5.40
2018-12-26T05:19:56.500Z,5.40
2018-12-26T05:22:26.353Z,5.40
2018-12-26T05:24:56.737Z,5.40
2018-12-26T05:27:34.125Z,5.40
2018-12-26T05:29:58.577Z,5.50
2018-12-26T05:32:28.663Z,5.40
2018-12-26T05:34:58.410Z,5.40
2018-12-26T05:37:28.616Z,5.40
2018-12-26T05:39:58.421Z,5.50
2018-12-26T05:42:28.145Z,5.40
2018-12-26T05:44:59.822Z,5.50
2018-12-26T05:47:30.118Z,5.50
2018-12-26T05:50:00.724Z,5.50
2018-12-26T05:52:31.020Z,5.50
2018-12-26T05:55:01.556Z,5.40
2018-12-26T05:57:31.594Z,5.40
2018-12-26T06:00:01.518Z,5.50
2018-12-26T06:02:32.039Z,5.50
2018-12-26T06:05:02.328Z,5.50
2018-12-26T06:07:32.470Z,5.50
2018-12-26T06:10:04.578Z,5.50
2018-12-26T06:12:34.647Z,5.50
2018-12-26T06:15:04.529Z,5.50
2018-12-26T06:17:34.739Z,5.50
2018-12-26T06:20:05.088Z,5.60
2018-12-26T06:22:35.120Z,5.50
2018-12-26T06:25:05.062Z,5.50
2018-12-26T06:27:35.102Z,5.60
2018-12-26T06:30:05.347Z,5.50
2018-12-26T06:32:35.546Z,5.50
2018-12-26T06:35:05.818Z,5.60
2018-12-26T06:37:35.860Z,5.60
2018-12-26T06:40:05.905Z,5.60
2018-12-26T06:42:35.708Z,5.60
2018-12-26T06:45:05.501Z,5.60
2018-12-26T06:47:35.816Z,5.50
2018-12-26T06:50:06.663Z,5.60
2018-12-26T06:52:37.161Z,5.60
2018-12-26T06:55:07.688Z,5.60
2018-12-26T06:57:38.540Z,5.60
2018-12-26T07:00:08.999Z,5.70
2018-12-26T07:02:40.064Z,5.70
2018-12-26T07:05:10.330Z,5.70
2018-12-26T07:07:40.421Z,5.70
2018-12-26T07:10:10.432Z,5.70
2018-12-26T07:12:48.391Z,5.70
2018-12-26T07:15:18.337Z,5.70
2018-12-26T07:17:48.171Z,5.70
2018-12-26T07:20:18.417Z,5.70
2018-12-26T07:22:49.472Z,5.70
2018-12-26T07:25:19.581Z,5.70
2018-12-26T07:27:49.593Z,5.70
2018-12-26T07:30:19.693Z,5.70
2018-12-26T07:32:49.800Z,5.70
2018-12-26T07:35:20.062Z,5.70
2018-12-26T07:37:50.440Z,5.60
2018-12-26T07:40:20.424Z,5.70
2018-12-26T07:42:50.922Z,5.70
2018-12-26T07:45:21.979Z,5.70
2018-12-26T07:47:52.786Z,5.70
2018-12-26T07:50:22.714Z,5.80
2018-12-26T07:53:00.014Z,5.80
2018-12-26T07:55:30.212Z,5.80
2018-12-26T07:58:00.370Z,5.80
2018-12-26T08:00:30.775Z,5.80
2018-12-26T08:03:02.938Z,5.80
2018-12-26T08:05:34.317Z,5.80
2018-12-26T08:08:05.545Z,5.80
2018-12-26T08:10:35.463Z,5.80
2018-12-26T08:13:06.086Z,5.80
2018-12-26T08:15:35.808Z,5.80
2018-12-26T08:18:05.841Z,5.90
2018-12-26T08:20:36.928Z,5.90
2018-12-26T08:23:08.021Z,5.90
2018-12-26T08:25:38.122Z,5.90
2018-12-26T08:28:08.019Z,5.90
2018-12-26T08:30:38.179Z,5.90
2018-12-26T08:33:08.252Z,5.90
2018-12-26T08:35:38.475Z,6.00
2018-12-26T08:38:08.645Z,6.00
2018-12-26T08:40:38.544Z,6.00
2018-12-26T08:43:09.650Z,6.00
2018-12-26T08:45:40.077Z,6.00
2018-12-26T08:48:10.259Z,6.00
2018-12-26T08:50:40.066Z,6.00
2018-12-26T08:53:10.060Z,6.10
2018-12-26T08:55:40.193Z,6.00
2018-12-26T08:58:12.485Z,6.00
2018-12-26T09:00:42.569Z,6.10
2018-12-26T09:03:14.332Z,6.10
2018-12-26T09:05:44.483Z,6.10
2018-12-26T09:08:15.370Z,6.10
2018-12-26T09:10:45.430Z,6.10
2018-12-26T09:13:15.548Z,6.20
2018-12-26T09:15:45.574Z,6.10
2018-12-26T09:18:16.182Z,6.20
2018-12-26T09:20:58.175Z,6.20
2018-12-26T09:24:07.784Z,6.20
2018-12-26T09:26:52.081Z,6.20
2018-12-26T09:29:40.907Z,6.30
2018-12-26T09:32:31.296Z,6.30
2018-12-26T09:35:20.892Z,6.30
2018-12-26T09:38:03.944Z,6.30
2018-12-26T09:40:46.098Z,6.20
2018-12-26T09:43:29.807Z,6.30
2018-12-26T09:46:20.192Z,6.30
2018-12-26T09:49:04.128Z,6.30
2018-12-26T09:51:51.891Z,6.30
2018-12-26T09:54:37.019Z,6.30
2018-12-26T09:57:20.378Z,6.40
2018-12-26T10:00:07.465Z,6.40
2018-12-26T10:02:49.045Z,6.40
2018-12-26T10:05:32.093Z,6.50
2018-12-26T10:08:04.124Z,6.50
2018-12-26T10:10:33.768Z,6.50
2018-12-26T10:13:04.259Z,6.50
2018-12-26T10:15:33.883Z,6.50
2018-12-26T10:18:15.592Z,6.60
2018-12-26T10:20:57.438Z,6.50
2018-12-26T10:23:51.696Z,6.50
2018-12-26T10:26:34.005Z,6.50
2018-12-26T10:29:36.464Z,6.50
2018-12-26T10:32:09.532Z,6.60
2018-12-26T10:34:39.311Z,6.60
2018-12-26T10:37:09.615Z,6.60
2018-12-26T10:39:41.610Z,6.60
2018-12-26T10:42:11.348Z,6.60
2018-12-26T10:44:41.776Z,6.60
2018-12-26T10:47:12.662Z,6.60
2018-12-26T10:49:42.246Z,6.60
2018-12-26T10:52:11.981Z,6.60
2018-12-26T10:54:42.837Z,6.70
2018-12-26T10:57:12.505Z,6.70
2018-12-26T10:59:42.710Z,6.70
2018-12-26T11:02:12.519Z,6.60
2018-12-26T11:04:42.127Z,6.60
2018-12-26T11:07:11.738Z,6.70
2018-12-26T11:09:41.765Z,6.60
2018-12-26T11:12:11.698Z,6.70
2018-12-26T11:14:42.793Z,6.70
2018-12-26T11:17:12.631Z,6.70
2018-12-26T11:19:42.297Z,6.70
2018-12-26T11:22:11.967Z,6.70
2018-12-26T11:24:43.148Z,6.70
2018-12-26T11:27:12.953Z,6.80
2018-12-26T11:29:43.019Z,6.80
2018-12-26T11:32:13.038Z,6.80
2018-12-26T11:34:43.302Z,6.80
2018-12-26T11:37:13.479Z,6.90
2018-12-26T11:39:43.410Z,6.90
2018-12-26T11:42:13.283Z,6.90
2018-12-26T11:44:43.078Z,7.00
2018-12-26T11:47:13.003Z,7.00
2018-12-26T11:49:43.443Z,7.00
2018-12-26T11:52:13.540Z,7.00
2018-12-26T11:54:43.269Z,7.10
2018-12-26T11:57:13.575Z,7.10
2018-12-26T11:59:43.515Z,7.10
2018-12-26T12:02:20.591Z,7.10
2018-12-26T12:04:45.829Z,7.10
2018-12-26T12:07:17.383Z,7.10
2018-12-26T12:09:48.001Z,7.20
2018-12-26T12:12:20.438Z,7.10
2018-12-26T12:14:50.599Z,7.20
2018-12-26T12:17:21.465Z,7.20
2018-12-26T12:19:51.913Z,7.20
2018-12-26T12:22:21.685Z,7.20
2018-12-26T12:24:51.334Z,7.20
2018-12-26T12:27:21.431Z,7.20
2018-12-26T12:29:51.020Z,7.30
2018-12-26T12:32:22.816Z,7.20
2018-12-26T12:34:52.849Z,7.30
2018-12-26T12:37:23.112Z,7.30
2018-12-26T12:39:53.443Z,7.30
2018-12-26T12:42:24.487Z,7.30
2018-12-26T12:44:56.490Z,7.30
2018-12-26T12:47:26.503Z,7.50
2018-12-26T12:49:56.478Z,7.50
2018-12-26T12:52:26.382Z,7.50
2018-12-26T12:54:56.284Z,7.40
2018-12-26T12:57:25.966Z,7.40
2018-12-26T13:00:00.332Z,7.40
2018-12-26T13:02:30.081Z,7.50
2018-12-26T13:04:59.947Z,7.40
2018-12-26T13:07:29.769Z,7.40
2018-12-26T13:09:59.674Z,7.50
2018-12-26T13:12:29.780Z,7.50
2018-12-26T13:14:59.842Z,7.50
2018-12-26T13:17:30.577Z,7.60
2018-12-26T13:20:01.264Z,7.60
2018-12-26T13:22:30.958Z,7.60
2018-12-26T13:25:00.692Z,7.50
2018-12-26T13:27:30.524Z,7.50
2018-12-26T13:30:00.261Z,7.50
2018-12-26T13:32:30.320Z,7.40
2018-12-26T13:35:00.211Z,7.40
2018-12-26T13:37:30.186Z,7.40
2018-12-26T13:40:00.432Z,7.50
2018-12-26T13:42:30.383Z,7.50
2018-12-26T13:45:01.570Z,7.50
2018-12-26T13:47:31.361Z,7.50
2018-12-26T13:50:02.231Z,7.70
2018-12-26T13:52:32.119Z,7.80
2018-12-26T13:55:01.738Z,7.70
2018-12-26T13:57:32.112Z,7.60
2018-12-26T14:00:02.402Z,7.60
2018-12-26T14:02:32.727Z,7.60
2018-12-26T14:05:03.103Z,7.60
2018-12-26T14:07:33.016Z,7.60
2018-12-26T14:10:03.199Z,7.50
2018-12-26T14:12:33.024Z,7.50
2018-12-26T14:15:05.371Z,7.50
2018-12-26T14:17:35.390Z,7.40
2018-12-26T14:20:06.532Z,7.50
2018-12-26T14:22:38.284Z,7.40
2018-12-26T14:25:08.839Z,7.40
2018-12-26T14:27:39.111Z,7.40
2018-12-26T14:30:11.306Z,7.40
2018-12-26T14:32:41.496Z,7.40
2018-12-26T14:35:11.956Z,7.30
2018-12-26T14:37:43.303Z,7.40
2018-12-26T14:40:14.412Z,7.30
2018-12-26T14:42:44.833Z,7.30
2018-12-26T14:45:16.633Z,7.30
2018-12-26T14:47:46.591Z,7.30
2018-12-26T14:50:17.339Z,7.30
2018-12-26T14:52:47.709Z,7.30
2018-12-26T14:55:17.684Z,7.30
2018-12-26T14:57:47.913Z,7.30
2018-12-26T15:00:20.025Z,7.20
2018-12-26T15:02:49.936Z,7.20
2018-12-26T15:05:20.827Z,7.20
2018-12-26T15:07:51.209Z,7.20
2018-12-26T15:10:22.601Z,7.20
2018-12-26T15:12:52.945Z,7.30
2018-12-26T15:15:22.987Z,7.30
2018-12-26T15:17:54.781Z,7.30
2018-12-26T15:20:25.071Z,7.30
2018-12-26T15:22:55.339Z,7.20
2018-12-26T15:25:25.697Z,7.20
2018-12-26T15:27:56.448Z,7.30
2018-12-26T15:30:28.726Z,7.30
2018-12-26T15:32:58.913Z,7.30
2018-12-26T15:35:29.305Z,7.20
2018-12-26T15:38:00.169Z,7.30
2018-12-26T15:40:30.610Z,7.40
2018-12-26T15:43:01.108Z,7.40
2018-12-26T15:45:31.369Z,7.40
2018-12-26T15:48:03.330Z,7.30
2018-12-26T15:50:34.294Z,7.30
2018-12-26T15:53:05.310Z,7.30
2018-12-26T15:55:36.123Z,7.20
2018-12-26T15:58:06.501Z,7.20
2018-12-26T16:00:37.612Z,7.20
2018-12-26T16:03:08.074Z,7.30
2018-12-26T16:05:38.880Z,7.30
2018-12-26T16:08:09.265Z,7.30
2018-12-26T16:10:39.381Z,7.30
2018-12-26T16:13:11.262Z,7.40
2018-12-26T16:15:47.171Z,7.30
2018-12-26T16:18:24.640Z,7.30
2018-12-26T16:21:02.190Z,7.20
2018-12-26T16:23:39.729Z,7.30
2018-12-26T16:26:15.816Z,7.20
2018-12-26T16:28:53.524Z,7.20
2018-12-26T16:31:30.619Z,7.20
2018-12-26T16:34:01.367Z,7.20
2018-12-26T16:36:31.713Z,7.20
2018-12-26T16:39:02.777Z,7.20
2018-12-26T16:41:33.194Z,7.20
2018-12-26T16:44:03.487Z,7.20
2018-12-26T16:46:33.872Z,7.20
2018-12-26T16:49:04.153Z,7.10
2018-12-26T16:51:34.353Z,7.10
2018-12-26T16:54:04.453Z,7.10
2018-12-26T16:56:34.584Z,7.20
2018-12-26T16:59:06.025Z,7.20
2018-12-26T17:01:36.385Z,7.20
2018-12-26T17:04:06.598Z,7.20
2018-12-26T17:06:40.777Z,7.20
2018-12-26T17:09:15.565Z,7.20
2018-12-26T17:11:46.354Z,7.20
2018-12-26T17:14:16.633Z,7.20
2018-12-26T17:16:47.538Z,7.30
2018-12-26T17:19:18.101Z,7.20
2018-12-26T17:21:49.216Z,7.20
2018-12-26T17:24:19.878Z,7.20
2018-12-26T17:26:50.145Z,7.10
2018-12-26T17:29:21.424Z,7.10
2018-12-26T17:31:52.626Z,7.10
2018-12-26T17:34:23.551Z,7.10
2018-12-26T17:36:53.547Z,7.20
2018-12-26T17:39:25.549Z,7.20
2018-12-26T17:41:56.590Z,7.10
2018-12-26T17:44:27.827Z,7.10
2018-12-26T17:46:58.319Z,7.10
2018-12-26T17:49:28.285Z,7.10
2018-12-26T17:51:59.873Z,7.10
2018-12-26T17:55:06.607Z,7.10
2018-12-26T17:57:40.457Z,7.10
2018-12-26T18:00:48.548Z,7.20
2018-12-26T18:03:18.436Z,7.10
2018-12-26T18:05:48.534Z,7.20
2018-12-26T18:08:18.587Z,7.10
2018-12-26T18:10:48.565Z,7.10
2018-12-26T18:13:18.761Z,7.10
2018-12-26T18:15:48.945Z,7.10
2018-12-26T18:18:19.015Z,7.20
2018-12-26T18:20:48.858Z,7.20
2018-12-26T18:23:19.008Z,7.20
2018-12-26T18:25:49.197Z,7.20
2018-12-26T18:28:19.443Z,7.20
2018-12-26T18:30:49.293Z,7.00
2018-12-26T18:33:19.934Z,7.10
2018-12-26T18:35:49.820Z,7.10
2018-12-26T18:38:19.851Z,7.10
2018-12-26T18:40:50.139Z,7.10
2018-12-26T18:43:20.134Z,7.00
2018-12-26T18:45:50.252Z,7.00
2018-12-26T18:48:20.632Z,7.00
2018-12-26T18:50:50.378Z,7.00
2018-12-26T18:53:20.501Z,7.00
2018-12-26T18:55:50.541Z,7.00
2018-12-26T18:58:39.719Z,7.00
2018-12-26T19:01:09.502Z,7.00
2018-12-26T19:03:39.590Z,7.00
2018-12-26T19:06:09.679Z,7.00
2018-12-26T19:08:40.381Z,7.00
2018-12-26T19:11:10.692Z,7.00
2018-12-26T19:13:40.942Z,6.90
2018-12-26T19:16:10.745Z,6.90
2018-12-26T19:18:41.194Z,6.90
2018-12-26T19:21:11.626Z,6.90
2018-12-26T19:23:41.839Z,6.90
2018-12-26T19:26:12.064Z,7.00
2018-12-26T19:28:41.983Z,7.00
2018-12-26T19:31:11.861Z,7.00
2018-12-26T19:33:41.920Z,7.00
2018-12-26T19:36:11.862Z,7.00
2018-12-26T19:38:41.943Z,6.90
2018-12-26T19:41:11.836Z,6.90
2018-12-26T19:43:41.633Z,6.90
2018-12-26T19:46:12.094Z,6.90
2018-12-26T19:48:41.994Z,6.80
2018-12-26T19:51:12.049Z,6.80
2018-12-26T19:53:49.280Z,6.90
2018-12-26T19:56:19.579Z,6.90
2018-12-26T19:58:49.770Z,6.80
2018-12-26T20:01:19.888Z,6.90
2018-12-26T20:03:51.907Z,6.90
2018-12-26T20:06:22.305Z,6.80
2018-12-26T20:08:52.562Z,6.80
2018-12-26T20:11:22.413Z,6.80
2018-12-26T20:13:52.300Z,6.90
2018-12-26T20:16:22.651Z,6.90
2018-12-26T20:18:55.573Z,6.90
2018-12-26T20:21:25.779Z,6.90
2018-12-26T20:23:55.764Z,6.90
2018-12-26T20:26:25.880Z,6.90
2018-12-26T20:28:55.712Z,6.90
2018-12-26T20:31:26.425Z,6.80
2018-12-26T20:33:56.554Z,6.70
2018-12-26T20:36:28.293Z,6.70
2018-12-26T20:38:58.609Z,6.70
2018-12-26T20:41:30.721Z,6.70
2018-12-26T20:44:00.794Z,6.70
2018-12-26T20:46:30.701Z,6.80
2018-12-26T20:49:01.055Z,6.80
2018-12-26T20:51:30.892Z,6.80
2018-12-26T20:54:01.053Z,6.70
2018-12-26T20:56:31.427Z,6.70
2018-12-26T20:59:05.893Z,6.70
2018-12-26T21:01:35.823Z,6.70
2018-12-26T21:04:05.792Z,6.70
2018-12-26T21:06:36.105Z,6.70
2018-12-26T21:09:08.250Z,6.70
2018-12-26T21:11:38.138Z,6.70
2018-12-26T21:14:09.420Z,6.70
2018-12-26T21:16:39.353Z,6.70
2018-12-26T21:19:09.243Z,6.70
2018-12-26T21:21:39.693Z,6.70
2018-12-26T21:24:09.792Z,6.60
2018-12-26T21:26:39.693Z,6.70
2018-12-26T21:29:09.834Z,6.70
2018-12-26T21:31:39.923Z,6.70
2018-12-26T21:34:11.047Z,6.60
2018-12-26T21:36:41.604Z,6.60
2018-12-26T21:39:11.668Z,6.50
2018-12-26T21:41:41.498Z,6.60
2018-12-26T21:44:11.275Z,6.60
2018-12-26T21:46:41.333Z,6.60
2018-12-26T21:49:11.196Z,6.60
2018-12-26T21:51:41.145Z,6.50
2018-12-26T21:54:11.130Z,6.60
2018-12-26T21:56:41.079Z,6.50
2018-12-26T21:59:11.109Z,6.50
2018-12-26T22:01:41.247Z,6.60
2018-12-26T22:04:11.514Z,6.60
2018-12-26T22:06:41.465Z,6.60
2018-12-26T22:09:12.439Z,6.50
2018-12-26T22:11:42.420Z,6.50
2018-12-26T22:14:12.330Z,6.40
2018-12-26T22:16:42.798Z,6.40
2018-12-26T22:19:13.220Z,6.50
2018-12-26T22:21:43.362Z,6.50
2018-12-26T22:24:14.090Z,6.50
2018-12-26T22:26:44.192Z,6.50
2018-12-26T22:29:14.513Z,6.40
2018-12-26T22:31:44.588Z,6.40
2018-12-26T22:34:14.893Z,6.40
2018-12-26T22:36:46.131Z,6.40
2018-12-26T22:39:16.165Z,6.30
2018-12-26T22:41:46.317Z,6.40
2018-12-26T22:44:27.547Z,6.40
2018-12-26T22:46:50.078Z,6.40
2018-12-26T22:49:20.125Z,6.40
2018-12-26T22:51:50.535Z,6.30
2018-12-26T22:54:20.836Z,6.30
2018-12-26T22:56:50.801Z,6.20
2018-12-26T22:59:25.083Z,6.20
2018-12-26T23:01:55.364Z,6.20
2018-12-26T23:04:25.137Z,6.20
2018-12-26T23:06:55.350Z,6.10
2018-12-26T23:09:25.492Z,6.20
2018-12-26T23:11:55.456Z,6.30
2018-12-26T23:14:25.494Z,6.20
2018-12-26T23:16:55.876Z,6.10
2018-12-26T23:19:26.934Z,6.10
2018-12-26T23:21:57.447Z,6.20
2018-12-26T23:24:27.532Z,6.20
2018-12-26T23:26:57.590Z,6.30
2018-12-26T23:29:27.913Z,6.30
2018-12-26T23:31:58.455Z,6.30
2018-12-26T23:34:28.872Z,6.30
2018-12-26T23:36:58.677Z,6.20
2018-12-26T23:39:28.637Z,6.30
2018-12-26T23:41:58.592Z,6.30
2018-12-26T23:44:28.880Z,6.30
2018-12-26T23:46:59.068Z,6.30
2018-12-26T23:49:29.254Z,6.30
2018-12-26T23:51:59.734Z,6.20
2018-12-26T23:54:29.687Z,6.20
2018-12-26T23:57:00.257Z,6.20
2018-12-26T23:59:30.578Z,6.20
